createdAt,value
2022-09-23T00:03:13.050Z,5.25
2022-09-23T00:08:15.841Z,5.22
2022-09-23T00:18:22.633Z,4.60
2022-09-23T00:28:29.582Z,7.55
2022-09-23T00:33:32.409Z,5.28
2022-09-23T00:43:41.659Z,3.92
2022-09-23T00:48:46.084Z,5.90
2022-09-23T00:53:51.371Z,3.97
2022-09-23T00:58:55.735Z,2.38
2022-09-23T01:03:59.506Z,3.47
2022-09-23T01:09:02.449Z,6.47
2022-09-23T01:14:21.814Z,3.08
2022-09-23T01:19:51.498Z,4.05
2022-09-23T01:25:14.265Z,3.60
2022-09-23T01:30:39.615Z,3.00
2022-09-23T01:35:55.216Z,2.70
2022-09-23T01:41:03.680Z,4.68
2022-09-23T01:46:14.297Z,3.45
2022-09-23T01:51:24.133Z,3.70
2022-09-23T01:56:30.347Z,3.67
2022-09-23T02:01:40.025Z,3.78
2022-09-23T02:06:50.702Z,4.13
2022-09-23T02:12:00.607Z,6.40
2022-09-23T02:17:09.920Z,4.18
2022-09-23T02:22:18.051Z,4.75
2022-09-23T02:27:26.813Z,5.05
2022-09-23T02:32:35.873Z,6.60
2022-09-23T02:37:45.836Z,4.15
2022-09-23T02:42:55.994Z,4.10
2022-09-23T02:48:05.818Z,2.63
2022-09-23T02:53:09.941Z,2.97
2022-09-23T02:58:14.454Z,3.53
2022-09-23T03:03:30.993Z,3.80
2022-09-23T03:08:44.109Z,4.85
2022-09-23T03:13:56.310Z,6.47
2022-09-23T03:19:09.443Z,3.00
2022-09-23T03:24:15.784Z,6.72
2022-09-23T03:29:20.588Z,3.00
2022-09-23T03:34:28.019Z,4.65
2022-09-23T03:39:37.868Z,3.15
2022-09-23T03:44:44.477Z,3.22
2022-09-23T03:49:49.269Z,3.53
2022-09-23T03:54:53.800Z,3.58
2022-09-23T03:59:56.756Z,6.82
2022-09-23T04:04:59.530Z,4.45
2022-09-23T04:15:07.596Z,3.72
2022-09-23T04:20:10.911Z,4.28
2022-09-23T04:25:15.148Z,3.72
2022-09-23T04:30:18.648Z,3.47
2022-09-23T04:35:21.461Z,5.78
2022-09-23T04:45:29.645Z,2.70
2022-09-23T04:50:34.774Z,4.10
2022-09-23T04:55:38.935Z,5.93
2022-09-23T05:00:41.786Z,4.80
2022-09-23T05:05:44.629Z,5.22
2022-09-23T05:10:49.445Z,3.10
2022-09-23T05:15:58.880Z,4.25
2022-09-23T05:21:02.003Z,3.13
2022-09-23T05:26:08.247Z,6.30
2022-09-23T05:31:19.365Z,5.72
2022-09-23T05:36:23.952Z,3.30
2022-09-23T05:41:28.688Z,6.15
2022-09-23T05:46:33.285Z,3.30
2022-09-23T05:51:36.644Z,7.55
2022-09-23T05:56:40.811Z,3.58
2022-09-23T06:01:45.189Z,3.58
2022-09-23T06:06:48.174Z,4.70
2022-09-23T06:11:52.326Z,5.63
2022-09-23T06:16:55.122Z,5.28
2022-09-23T06:27:02.546Z,6.28
2022-09-23T06:32:05.730Z,3.88
2022-09-23T06:37:17.763Z,4.10
2022-09-23T06:42:24.353Z,2.97
2022-09-23T06:47:27.214Z,7.68
2022-09-23T06:52:30.045Z,2.38
2022-09-23T06:57:34.593Z,4.30
2022-09-23T07:02:37.421Z,3.10
2022-09-23T07:07:41.256Z,3.17
2022-09-23T07:12:45.576Z,3.00
2022-09-23T07:17:49.419Z,6.47
2022-09-23T07:22:52.817Z,4.30
2022-09-23T07:27:58.401Z,7.30
2022-09-23T07:33:01.303Z,4.95
2022-09-23T07:38:04.326Z,6.35
2022-09-23T07:43:08.975Z,7.13
2022-09-23T07:48:12.509Z,6.10
2022-09-23T07:53:15.746Z,5.80
2022-09-23T07:58:19.989Z,4.60
2022-09-23T08:03:22.853Z,4.57
2022-09-23T08:08:25.931Z,6.15
2022-09-23T08:13:30.868Z,6.25
2022-09-23T08:18:34.071Z,4.15
2022-09-23T08:23:36.889Z,3.55
2022-09-23T08:28:45.235Z,3.25
2022-09-23T08:33:48.104Z,3.70
2022-09-23T08:38:51.035Z,4.95
2022-09-23T08:43:59.934Z,3.03
2022-09-23T08:49:03.275Z,4.82
2022-09-23T08:54:07.529Z,5.85
2022-09-23T08:59:19.118Z,5.65
2022-09-23T09:04:25.817Z,3.15
2022-09-23T09:09:32.101Z,4.95
2022-09-23T09:14:44.768Z,4.20
2022-09-23T09:25:06.150Z,4.35
2022-09-23T09:30:14.500Z,4.88
2022-09-23T09:35:26.381Z,2.72
2022-09-23T09:40:29.257Z,8.53
2022-09-23T09:45:57.570Z,4.40
2022-09-23T09:51:19.105Z,5.57
2022-09-23T09:56:27.229Z,3.95
2022-09-23T10:01:33.388Z,4.32
2022-09-23T10:06:37.107Z,2.70
2022-09-23T10:11:40.460Z,3.83
2022-09-23T10:16:47.153Z,2.35
2022-09-23T10:21:54.544Z,5.35
2022-09-23T10:27:00.940Z,6.60
2022-09-23T10:32:25.604Z,1.70
2022-09-23T10:37:34.514Z,3.58
2022-09-23T10:43:11.432Z,4.72
2022-09-23T10:48:26.421Z,2.38
2022-09-23T10:53:43.488Z,1.70
2022-09-23T10:59:05.525Z,1.88
2022-09-23T11:04:32.580Z,4.30
2022-09-23T11:09:51.044Z,5.45
2022-09-23T11:15:10.886Z,3.88
2022-09-23T11:20:38.028Z,3.95
2022-09-23T11:25:50.568Z,5.80
2022-09-23T11:31:04.188Z,2.88
2022-09-23T11:36:13.547Z,5.40
2022-09-23T11:41:21.555Z,5.95
2022-09-23T11:46:32.051Z,2.95
2022-09-23T11:51:44.438Z,4.70
2022-09-23T11:56:51.466Z,2.45
2022-09-23T12:02:09.304Z,3.03
2022-09-23T12:07:23.157Z,2.33
2022-09-23T12:12:36.306Z,3.40
2022-09-23T12:18:06.571Z,2.35
2022-09-23T12:23:27.143Z,4.13
2022-09-23T12:28:33.769Z,2.00
2022-09-23T12:33:37.308Z,6.40
2022-09-23T12:38:47.937Z,2.85
2022-09-23T12:43:56.562Z,1.27
2022-09-23T12:49:02.040Z,1.83
2022-09-23T12:54:25.212Z,2.25
2022-09-23T12:59:31.093Z,1.60
2022-09-23T13:05:01.374Z,1.40
2022-09-23T13:10:10.078Z,4.13
2022-09-23T13:15:19.835Z,4.75
2022-09-23T13:20:38.408Z,1.65
2022-09-23T13:25:43.800Z,4.05
2022-09-23T13:30:52.020Z,1.80
2022-09-23T13:35:58.609Z,2.35
2022-09-23T13:41:08.190Z,2.05
2022-09-23T13:46:14.559Z,4.22
2022-09-23T13:51:22.961Z,2.08
2022-09-23T13:56:29.432Z,1.63
2022-09-23T14:01:34.307Z,1.25
2022-09-23T14:06:42.037Z,7.07
2022-09-23T14:11:46.373Z,1.73
2022-09-23T14:16:51.694Z,2.60
2022-09-23T14:21:56.075Z,6.57
2022-09-23T14:27:03.321Z,1.63
2022-09-23T14:32:08.246Z,1.88
2022-09-23T14:37:38.925Z,2.03
2022-09-23T14:42:46.346Z,2.75
2022-09-23T14:47:52.529Z,1.70
2022-09-23T14:52:55.306Z,2.20
2022-09-23T14:58:05.250Z,2.50
2022-09-23T15:03:16.186Z,7.93
2022-09-23T15:08:21.507Z,2.85
2022-09-23T15:13:30.479Z,2.65
2022-09-23T15:18:35.923Z,1.63
2022-09-23T15:23:46.275Z,2.95
2022-09-23T15:28:51.974Z,3.22
2022-09-23T15:33:55.911Z,1.58
2022-09-23T15:39:02.914Z,1.83
2022-09-23T15:44:13.569Z,1.35
2022-09-23T15:49:23.137Z,1.45
2022-09-23T15:54:26.106Z,3.65
2022-09-23T15:59:31.526Z,1.88
2022-09-23T16:04:35.925Z,1.98
2022-09-23T16:09:38.667Z,2.25
2022-09-23T16:14:42.819Z,2.20
2022-09-23T16:19:46.752Z,3.15
2022-09-23T16:24:49.539Z,4.00
2022-09-23T16:29:53.590Z,4.18
2022-09-23T16:34:58.475Z,1.75
2022-09-23T16:40:02.078Z,3.25
2022-09-23T16:45:07.320Z,3.50
2022-09-23T16:50:11.439Z,3.45
2022-09-23T16:55:15.255Z,3.08
2022-09-23T17:00:37.234Z,3.75
2022-09-23T17:05:40.473Z,3.20
2022-09-23T17:10:44.530Z,6.25
2022-09-23T17:15:48.634Z,8.38
2022-09-23T17:20:59.197Z,7.35
2022-09-23T17:26:05.432Z,8.90
2022-09-23T17:31:09.947Z,3.25
2022-09-23T17:36:14.175Z,10.68
2022-09-23T17:41:18.069Z,15.70
2022-09-23T17:46:23.171Z,16.75
2022-09-23T17:51:26.973Z,12.20
2022-09-23T17:56:30.841Z,10.68
2022-09-23T18:01:35.556Z,8.00
2022-09-23T18:06:38.895Z,8.07
2022-09-23T18:11:44.149Z,3.70
2022-09-23T18:16:50.631Z,4.05
2022-09-23T18:21:56.078Z,3.40
2022-09-23T18:26:59.916Z,4.43
2022-09-23T18:32:05.045Z,3.95
2022-09-23T18:37:15.242Z,5.55
2022-09-23T18:42:18.497Z,4.93
2022-09-23T18:47:36.683Z,6.30
2022-09-23T18:52:39.593Z,7.35
2022-09-23T18:57:42.455Z,10.38
2022-09-23T19:02:46.981Z,7.18
2022-09-23T19:07:49.950Z,7.22
2022-09-23T19:12:52.815Z,6.43
2022-09-23T19:17:57.238Z,3.55
2022-09-23T19:23:00.034Z,5.00
2022-09-23T19:28:05.438Z,7.00
2022-09-23T19:33:10.099Z,10.77
2022-09-23T19:38:13.246Z,5.18
2022-09-23T19:43:17.038Z,4.80
2022-09-23T19:48:21.491Z,5.40
2022-09-23T19:53:28.004Z,7.15
2022-09-23T19:58:31.200Z,5.97
2022-09-23T20:03:35.432Z,4.32
2022-09-23T20:08:38.702Z,9.15
2022-09-23T20:13:43.961Z,7.93
2022-09-23T20:18:52.842Z,7.43
2022-09-23T20:23:55.714Z,9.85
2022-09-23T20:28:59.404Z,8.73
2022-09-23T20:34:05.855Z,10.60
2022-09-23T20:39:10.030Z,8.43
2022-09-23T20:44:13.876Z,8.98
2022-09-23T20:49:19.025Z,9.95
2022-09-23T20:54:23.251Z,8.43
2022-09-23T20:59:27.232Z,10.02
2022-09-23T21:04:31.787Z,10.88
2022-09-23T21:09:34.801Z,9.15
2022-09-23T21:14:37.804Z,8.57
2022-09-23T21:19:41.921Z,9.18
2022-09-23T21:25:25.714Z,11.75
2022-09-23T21:30:08.653Z,8.77
2022-09-23T21:35:12.820Z,13.15
2022-09-23T21:40:33.389Z,8.98
2022-09-23T21:45:36.359Z,13.85
2022-09-23T21:50:40.995Z,10.85
2022-09-23T21:55:44.079Z,12.82
2022-09-23T22:00:46.978Z,12.52
2022-09-23T22:06:01.726Z,12.30
2022-09-23T22:11:06.774Z,11.18
2022-09-23T22:16:10.689Z,11.13
2022-09-23T22:21:14.901Z,12.43
2022-09-23T22:26:17.826Z,10.05
2022-09-23T22:31:38.202Z,10.52
2022-09-23T22:36:42.424Z,13.27
2022-09-23T22:41:45.886Z,15.35
2022-09-23T22:46:49.415Z,13.18
2022-09-23T22:51:54.076Z,11.07
2022-09-23T22:56:56.945Z,13.00
2022-09-23T23:02:02.436Z,9.88
2022-09-23T23:07:06.938Z,14.10
2022-09-23T23:12:09.784Z,14.68
2022-09-23T23:17:12.618Z,11.88
2022-09-23T23:22:16.784Z,9.25
2022-09-23T23:27:19.582Z,11.25
2022-09-23T23:32:22.341Z,9.93
2022-09-23T23:37:26.514Z,10.93
2022-09-23T23:42:29.554Z,11.02
2022-09-23T23:47:32.330Z,10.27
2022-09-23T23:52:36.558Z,13.63
2022-09-23T23:57:39.457Z,11.82
